AEE905 LCLK-LGAV
Flight info
| Callsign | AEE905 |
|---|---|
| Flight time | 1h 29m |
| Altitude | 36000 |
| Route | PHA M31 GENOS DCT PEDER DCT EVENO UM601 RDS UL995 VARIX |
| Aircraft | A21N/M-SDE3FGHIRWY/LB1 |
Departure
| Time | 2026-05-04 17:26 |
|---|---|
| Airport | Larnaca International Airport (LCLK) |
Arrival
| Time | 2026-05-04 18:55 |
|---|---|
| Airport | Athens Eleftherios Venizelos International Airport (LGAV) |
| Time | Latitude | Longitude | Altitude | Speed | Heading |
|---|---|---|---|---|---|
| 2026-05-04 17:00 | 34.86940 | 33.61167 | 14 ft | 0 kts | 255° |
| 2026-05-04 17:09 | 34.86942 | 33.61174 | 14 ft | 2 kts | 255° |
| 2026-05-04 17:09 | 34.86946 | 33.61192 | 14 ft | 2 kts | 255° |
| 2026-05-04 17:10 | 34.86954 | 33.61227 | 14 ft | 2 kts | 255° |
| 2026-05-04 17:10 | 34.86977 | 33.61259 | 14 ft | 2 kts | 178° |
| 2026-05-04 17:11 | 34.86991 | 33.61254 | 14 ft | 1 kts | 142° |
| 2026-05-04 17:11 | 34.86996 | 33.61249 | 14 ft | 1 kts | 132° |
| 2026-05-04 17:11 | 34.86998 | 33.61246 | 14 ft | 0 kts | 135° |
| 2026-05-04 17:12 | 34.86998 | 33.61247 | 14 ft | 0 kts | 135° |
| 2026-05-04 17:14 | 34.86992 | 33.61254 | 14 ft | 2 kts | 135° |
| 2026-05-04 17:14 | 34.86974 | 33.61275 | 14 ft | 5 kts | 135° |
| 2026-05-04 17:14 | 34.86901 | 33.61360 | 14 ft | 7 kts | 136° |
| 2026-05-04 17:15 | 34.86872 | 33.61400 | 14 ft | 5 kts | 113° |
| 2026-05-04 17:15 | 34.86912 | 33.61475 | 14 ft | 7 kts | 43° |
| 2026-05-04 17:16 | 34.87003 | 33.61579 | 14 ft | 10 kts | 44° |
| 2026-05-04 17:16 | 34.87133 | 33.61741 | 14 ft | 8 kts | 45° |
| 2026-05-04 17:17 | 34.87170 | 33.61786 | 14 ft | 7 kts | 45° |
| 2026-05-04 17:17 | 34.87308 | 33.61953 | 14 ft | 12 kts | 45° |
| 2026-05-04 17:18 | 34.87371 | 33.62029 | 14 ft | 13 kts | 45° |
| 2026-05-04 17:18 | 34.87505 | 33.62192 | 14 ft | 13 kts | 45° |
| 2026-05-04 17:19 | 34.87629 | 33.62344 | 14 ft | 10 kts | 46° |
| 2026-05-04 17:19 | 34.87706 | 33.62440 | 14 ft | 8 kts | 46° |
| 2026-05-04 17:20 | 34.87796 | 33.62552 | 14 ft | 10 kts | 45° |
| 2026-05-04 17:20 | 34.87912 | 33.62693 | 14 ft | 13 kts | 45° |
| 2026-05-04 17:20 | 34.87980 | 33.62775 | 14 ft | 14 kts | 45° |
| 2026-05-04 17:21 | 34.88126 | 33.62951 | 14 ft | 15 kts | 45° |
| 2026-05-04 17:21 | 34.88280 | 33.63138 | 14 ft | 15 kts | 45° |
| 2026-05-04 17:22 | 34.88350 | 33.63224 | 14 ft | 13 kts | 46° |
| 2026-05-04 17:22 | 34.88411 | 33.63300 | 14 ft | 10 kts | 46° |
| 2026-05-04 17:23 | 34.88408 | 33.63431 | 14 ft | 6 kts | 136° |
| 2026-05-04 17:23 | 34.88372 | 33.63472 | 13 ft | 7 kts | 136° |
| 2026-05-04 17:23 | 34.88297 | 33.63524 | 14 ft | 6 kts | 217° |
| 2026-05-04 17:24 | 34.88280 | 33.63504 | 13 ft | 0 kts | 226° |
| 2026-05-04 17:25 | 34.88274 | 33.63496 | 13 ft | 6 kts | 226° |
| 2026-05-04 17:25 | 34.87614 | 33.62688 | 14 ft | 131 kts | 226° |
| 2026-05-04 17:26 | 34.86044 | 33.60733 | 716 ft | 168 kts | 229° |
| 2026-05-04 17:26 | 34.83667 | 33.57586 | 2530 ft | 169 kts | 230° |
| 2026-05-04 17:27 | 34.82063 | 33.55474 | 3383 ft | 176 kts | 240° |
| 2026-05-04 17:27 | 34.81630 | 33.52390 | 4007 ft | 199 kts | 268° |
| 2026-05-04 17:28 | 34.81399 | 33.48748 | 4547 ft | 237 kts | 265° |
| 2026-05-04 17:29 | 34.80787 | 33.42371 | 6319 ft | 260 kts | 263° |
| 2026-05-04 17:29 | 34.80100 | 33.35814 | 8567 ft | 264 kts | 264° |
| 2026-05-04 17:30 | 34.79420 | 33.29134 | 10582 ft | 274 kts | 264° |
| 2026-05-04 17:31 | 34.78932 | 33.24318 | 11152 ft | 305 kts | 264° |
| 2026-05-04 17:31 | 34.78101 | 33.16244 | 12572 ft | 328 kts | 264° |
| 2026-05-04 17:32 | 34.77531 | 33.10741 | 13770 ft | 332 kts | 264° |
| 2026-05-04 17:33 | 34.76653 | 33.02305 | 15413 ft | 341 kts | 264° |
| 2026-05-04 17:33 | 34.76353 | 32.99438 | 15940 ft | 343 kts | 265° |
| 2026-05-04 17:34 | 34.75442 | 32.90725 | 17437 ft | 351 kts | 265° |
| 2026-05-04 17:34 | 34.75133 | 32.87794 | 17888 ft | 354 kts | 265° |
| 2026-05-04 17:35 | 34.74189 | 32.78836 | 19216 ft | 362 kts | 265° |
| 2026-05-04 17:35 | 34.73542 | 32.72755 | 20103 ft | 366 kts | 265° |
| 2026-05-04 17:35 | 34.73215 | 32.69698 | 20515 ft | 368 kts | 265° |
| 2026-05-04 17:36 | 34.72886 | 32.66592 | 20923 ft | 371 kts | 265° |
| 2026-05-04 17:36 | 34.72553 | 32.63473 | 21319 ft | 373 kts | 265° |
| 2026-05-04 17:36 | 34.72221 | 32.60370 | 21708 ft | 376 kts | 265° |
| 2026-05-04 17:36 | 34.71882 | 32.57212 | 22097 ft | 378 kts | 265° |
| 2026-05-04 17:37 | 34.71540 | 32.54023 | 22481 ft | 380 kts | 265° |
| 2026-05-04 17:37 | 34.71220 | 32.50858 | 22829 ft | 382 kts | 266° |
| 2026-05-04 17:37 | 34.71016 | 32.47630 | 23160 ft | 384 kts | 268° |
| 2026-05-04 17:37 | 34.70844 | 32.44415 | 23523 ft | 386 kts | 268° |
| 2026-05-04 17:38 | 34.70671 | 32.41134 | 23856 ft | 388 kts | 268° |
| 2026-05-04 17:38 | 34.70499 | 32.37865 | 24174 ft | 390 kts | 268° |
| 2026-05-04 17:38 | 34.70327 | 32.34598 | 24507 ft | 391 kts | 268° |
| 2026-05-04 17:38 | 34.70150 | 32.31279 | 24853 ft | 392 kts | 268° |
| 2026-05-04 17:39 | 34.69795 | 32.24662 | 25509 ft | 395 kts | 268° |
| 2026-05-04 17:39 | 34.69617 | 32.21363 | 25821 ft | 396 kts | 268° |
| 2026-05-04 17:39 | 34.69434 | 32.18018 | 26122 ft | 397 kts | 267° |
| 2026-05-04 17:40 | 34.69251 | 32.14668 | 26399 ft | 398 kts | 268° |
| 2026-05-04 17:40 | 34.69067 | 32.11318 | 26685 ft | 399 kts | 268° |
| 2026-05-04 17:40 | 34.68885 | 32.07997 | 26962 ft | 400 kts | 267° |
| 2026-05-04 17:40 | 34.68698 | 32.04628 | 27245 ft | 401 kts | 268° |
| 2026-05-04 17:41 | 34.68508 | 32.01234 | 27522 ft | 402 kts | 268° |
| 2026-05-04 17:41 | 34.68318 | 31.97856 | 27775 ft | 403 kts | 268° |
| 2026-05-04 17:41 | 34.68186 | 31.94466 | 28014 ft | 404 kts | 272° |
| 2026-05-04 17:41 | 34.68503 | 31.91078 | 28250 ft | 404 kts | 281° |
| 2026-05-04 17:42 | 34.69289 | 31.87855 | 28547 ft | 404 kts | 290° |
| 2026-05-04 17:42 | 34.70628 | 31.84840 | 28788 ft | 408 kts | 303° |
| 2026-05-04 17:42 | 34.72319 | 31.82081 | 29020 ft | 410 kts | 304° |
| 2026-05-04 17:42 | 34.74037 | 31.79318 | 29308 ft | 410 kts | 304° |
| 2026-05-04 17:43 | 34.75748 | 31.76566 | 29609 ft | 409 kts | 304° |
| 2026-05-04 17:43 | 34.77455 | 31.73819 | 29968 ft | 407 kts | 304° |
| 2026-05-04 17:43 | 34.79160 | 31.71064 | 30304 ft | 406 kts | 304° |
| 2026-05-04 17:43 | 34.80838 | 31.68346 | 30600 ft | 405 kts | 304° |
| 2026-05-04 17:44 | 34.82538 | 31.65589 | 30849 ft | 405 kts | 304° |
| 2026-05-04 17:44 | 34.84226 | 31.62852 | 31062 ft | 406 kts | 304° |
| 2026-05-04 17:44 | 34.85903 | 31.60132 | 31330 ft | 405 kts | 304° |
| 2026-05-04 17:44 | 34.87597 | 31.57383 | 31595 ft | 404 kts | 304° |
| 2026-05-04 17:45 | 34.89257 | 31.54683 | 31771 ft | 404 kts | 304° |
| 2026-05-04 17:45 | 34.90948 | 31.51931 | 31949 ft | 405 kts | 304° |
| 2026-05-04 17:45 | 34.92641 | 31.49176 | 32173 ft | 405 kts | 304° |
| 2026-05-04 17:45 | 34.94319 | 31.46444 | 32430 ft | 403 kts | 304° |
| 2026-05-04 17:46 | 34.95991 | 31.43715 | 32667 ft | 402 kts | 304° |
| 2026-05-04 17:46 | 34.97654 | 31.41001 | 32883 ft | 401 kts | 304° |
| 2026-05-04 17:46 | 34.99312 | 31.38293 | 33085 ft | 401 kts | 304° |
| 2026-05-04 17:46 | 35.00990 | 31.35552 | 33294 ft | 401 kts | 304° |
| 2026-05-04 17:47 | 35.02631 | 31.32866 | 33521 ft | 400 kts | 303° |
| 2026-05-04 17:47 | 35.04295 | 31.30143 | 33745 ft | 400 kts | 304° |
| 2026-05-04 17:47 | 35.05953 | 31.27425 | 33973 ft | 400 kts | 303° |
| 2026-05-04 17:47 | 35.07610 | 31.24708 | 34167 ft | 401 kts | 303° |
| 2026-05-04 17:48 | 35.09272 | 31.21981 | 34353 ft | 401 kts | 303° |
| 2026-05-04 17:48 | 35.10928 | 31.19259 | 34527 ft | 402 kts | 303° |
| 2026-05-04 17:48 | 35.12616 | 31.16484 | 34735 ft | 403 kts | 304° |
| 2026-05-04 17:48 | 35.14264 | 31.13772 | 34911 ft | 404 kts | 304° |
| 2026-05-04 17:49 | 35.15939 | 31.11015 | 35065 ft | 405 kts | 304° |
| 2026-05-04 17:49 | 35.17615 | 31.08254 | 35224 ft | 406 kts | 304° |
| 2026-05-04 17:49 | 35.19309 | 31.05463 | 35397 ft | 406 kts | 304° |
| 2026-05-04 17:49 | 35.20979 | 31.02707 | 35566 ft | 407 kts | 304° |
| 2026-05-04 17:50 | 35.22651 | 30.99944 | 35714 ft | 407 kts | 304° |
| 2026-05-04 17:50 | 35.24349 | 30.97137 | 35828 ft | 409 kts | 304° |
| 2026-05-04 17:50 | 35.27731 | 30.91570 | 35905 ft | 411 kts | 304° |
| 2026-05-04 17:51 | 35.31178 | 30.85973 | 35904 ft | 412 kts | 304° |
| 2026-05-04 17:51 | 35.34610 | 30.80392 | 35907 ft | 412 kts | 304° |
| 2026-05-04 17:52 | 35.38033 | 30.74807 | 35911 ft | 412 kts | 305° |
| 2026-05-04 17:52 | 35.41487 | 30.69164 | 35905 ft | 412 kts | 305° |
| 2026-05-04 17:53 | 35.44916 | 30.63549 | 35910 ft | 413 kts | 305° |
| 2026-05-04 17:53 | 35.48329 | 30.57952 | 35909 ft | 413 kts | 305° |
| 2026-05-04 17:54 | 35.51772 | 30.52296 | 35909 ft | 413 kts | 305° |
| 2026-05-04 17:54 | 35.55194 | 30.46666 | 35913 ft | 414 kts | 305° |
| 2026-05-04 17:55 | 35.58640 | 30.40986 | 35905 ft | 414 kts | 305° |
| 2026-05-04 17:55 | 35.62068 | 30.35328 | 35895 ft | 415 kts | 306° |
| 2026-05-04 17:56 | 35.65515 | 30.29629 | 35905 ft | 415 kts | 305° |
| 2026-05-04 17:56 | 35.68956 | 30.23931 | 35899 ft | 415 kts | 305° |
| 2026-05-04 17:57 | 35.72391 | 30.18231 | 35894 ft | 415 kts | 305° |
| 2026-05-04 17:57 | 35.75827 | 30.12521 | 35893 ft | 416 kts | 305° |
| 2026-05-04 17:58 | 35.79236 | 30.06774 | 35896 ft | 416 kts | 303° |
| 2026-05-04 17:58 | 35.82230 | 30.00736 | 35899 ft | 416 kts | 298° |
| 2026-05-04 17:59 | 35.84719 | 29.94303 | 35897 ft | 416 kts | 292° |
| 2026-05-04 18:00 | 35.87606 | 29.84248 | 35895 ft | 417 kts | 289° |
| 2026-05-04 18:00 | 35.89440 | 29.77483 | 35900 ft | 418 kts | 289° |
| 2026-05-04 18:01 | 35.91277 | 29.70690 | 35904 ft | 419 kts | 289° |
| 2026-05-04 18:01 | 35.93111 | 29.63886 | 35895 ft | 419 kts | 289° |
| 2026-05-04 18:02 | 35.95866 | 29.53641 | 35921 ft | 420 kts | 289° |
| 2026-05-04 18:02 | 35.97703 | 29.46827 | 35925 ft | 420 kts | 289° |
| 2026-05-04 18:03 | 35.99539 | 29.39999 | 35928 ft | 419 kts | 289° |
| 2026-05-04 18:03 | 36.01370 | 29.33164 | 35935 ft | 420 kts | 289° |
| 2026-05-04 18:04 | 36.03187 | 29.26362 | 35938 ft | 420 kts | 289° |
| 2026-05-04 18:05 | 36.05924 | 29.16094 | 35946 ft | 420 kts | 289° |
| 2026-05-04 18:05 | 36.07739 | 29.09260 | 35951 ft | 419 kts | 289° |
| 2026-05-04 18:06 | 36.10453 | 28.99004 | 35957 ft | 420 kts | 289° |
| 2026-05-04 18:06 | 36.12262 | 28.92152 | 35958 ft | 420 kts | 289° |
| 2026-05-04 18:07 | 36.14065 | 28.85299 | 35969 ft | 420 kts | 289° |
| 2026-05-04 18:07 | 36.15860 | 28.78459 | 35969 ft | 420 kts | 289° |
| 2026-05-04 18:08 | 36.17659 | 28.71583 | 35970 ft | 421 kts | 290° |
| 2026-05-04 18:08 | 36.19451 | 28.64725 | 35972 ft | 421 kts | 290° |
| 2026-05-04 18:09 | 36.23021 | 28.50993 | 35979 ft | 421 kts | 289° |
| 2026-05-04 18:10 | 36.24800 | 28.44110 | 35987 ft | 420 kts | 290° |
| 2026-05-04 18:10 | 36.26582 | 28.37190 | 35984 ft | 420 kts | 290° |
| 2026-05-04 18:11 | 36.28347 | 28.30315 | 35999 ft | 421 kts | 289° |
| 2026-05-04 18:11 | 36.30114 | 28.23416 | 35994 ft | 420 kts | 289° |
| 2026-05-04 18:12 | 36.31871 | 28.16533 | 36003 ft | 421 kts | 289° |
| 2026-05-04 18:12 | 36.33663 | 28.09656 | 36007 ft | 420 kts | 291° |
| 2026-05-04 18:13 | 36.35873 | 28.02980 | 36013 ft | 420 kts | 295° |
| 2026-05-04 18:14 | 36.39428 | 27.93078 | 36011 ft | 419 kts | 296° |
| 2026-05-04 18:14 | 36.41785 | 27.86499 | 36015 ft | 419 kts | 296° |
| 2026-05-04 18:15 | 36.46495 | 27.73306 | 36027 ft | 420 kts | 296° |
| 2026-05-04 18:16 | 36.48839 | 27.66719 | 36026 ft | 420 kts | 296° |
| 2026-05-04 18:16 | 36.51186 | 27.60109 | 36035 ft | 419 kts | 296° |
| 2026-05-04 18:17 | 36.54695 | 27.50196 | 36037 ft | 418 kts | 296° |
| 2026-05-04 18:18 | 36.58205 | 27.40252 | 36048 ft | 419 kts | 296° |
| 2026-05-04 18:18 | 36.60524 | 27.33663 | 36052 ft | 418 kts | 296° |
| 2026-05-04 18:19 | 36.64004 | 27.23744 | 36044 ft | 418 kts | 296° |
| 2026-05-04 18:19 | 36.66324 | 27.17112 | 36055 ft | 418 kts | 296° |
| 2026-05-04 18:20 | 36.68641 | 27.10479 | 36057 ft | 418 kts | 296° |
| 2026-05-04 18:20 | 36.70936 | 27.03888 | 36057 ft | 418 kts | 296° |
| 2026-05-04 18:21 | 36.73239 | 26.97248 | 36054 ft | 418 kts | 296° |
| 2026-05-04 18:21 | 36.75548 | 26.90582 | 36060 ft | 418 kts | 296° |
| 2026-05-04 18:22 | 36.77830 | 26.83980 | 36060 ft | 418 kts | 296° |
| 2026-05-04 18:22 | 36.80132 | 26.77306 | 36059 ft | 419 kts | 296° |
| 2026-05-04 18:23 | 36.82423 | 26.70648 | 36068 ft | 418 kts | 296° |
| 2026-05-04 18:23 | 36.83555 | 26.67353 | 35807 ft | 418 kts | 296° |
| 2026-05-04 18:23 | 36.84695 | 26.64038 | 35957 ft | 418 kts | 296° |
| 2026-05-04 18:24 | 36.86995 | 26.57334 | 36050 ft | 419 kts | 296° |
| 2026-05-04 18:24 | 36.89273 | 26.50679 | 36079 ft | 420 kts | 296° |
| 2026-05-04 18:25 | 36.91559 | 26.43972 | 36081 ft | 420 kts | 296° |
| 2026-05-04 18:25 | 36.93827 | 26.37297 | 36093 ft | 419 kts | 296° |
| 2026-05-04 18:26 | 36.96103 | 26.30578 | 36099 ft | 420 kts | 295° |
| 2026-05-04 18:26 | 36.98372 | 26.23874 | 36106 ft | 419 kts | 295° |
| 2026-05-04 18:27 | 37.00634 | 26.17214 | 36335 ft | 420 kts | 295° |
| 2026-05-04 18:27 | 37.01781 | 26.13839 | 36218 ft | 418 kts | 295° |
| 2026-05-04 18:27 | 37.02910 | 26.10508 | 36163 ft | 418 kts | 295° |
| 2026-05-04 18:28 | 37.05163 | 26.03852 | 36112 ft | 418 kts | 295° |
| 2026-05-04 18:28 | 37.07420 | 25.97164 | 36120 ft | 419 kts | 295° |
| 2026-05-04 18:29 | 37.09674 | 25.90474 | 36117 ft | 418 kts | 295° |
| 2026-05-04 18:29 | 37.11928 | 25.83763 | 36116 ft | 417 kts | 295° |
| 2026-05-04 18:30 | 37.14144 | 25.77141 | 35483 ft | 409 kts | 296° |
| 2026-05-04 18:30 | 37.15234 | 25.73885 | 35011 ft | 409 kts | 296° |
| 2026-05-04 18:30 | 37.16328 | 25.70610 | 34588 ft | 409 kts | 296° |
| 2026-05-04 18:31 | 37.17423 | 25.67332 | 34068 ft | 409 kts | 296° |
| 2026-05-04 18:31 | 37.18520 | 25.64049 | 33357 ft | 412 kts | 296° |
| 2026-05-04 18:31 | 37.19642 | 25.60690 | 32512 ft | 417 kts | 296° |
| 2026-05-04 18:31 | 37.20760 | 25.57330 | 31624 ft | 425 kts | 296° |
| 2026-05-04 18:32 | 37.21890 | 25.53936 | 30678 ft | 433 kts | 296° |
| 2026-05-04 18:32 | 37.23058 | 25.50413 | 29637 ft | 440 kts | 296° |
| 2026-05-04 18:32 | 37.24199 | 25.46888 | 28686 ft | 445 kts | 295° |
| 2026-05-04 18:32 | 37.25357 | 25.43270 | 28038 ft | 441 kts | 295° |
| 2026-05-04 18:33 | 37.26469 | 25.39782 | 27548 ft | 435 kts | 295° |
| 2026-05-04 18:33 | 37.27565 | 25.36279 | 26980 ft | 431 kts | 294° |
| 2026-05-04 18:33 | 37.28547 | 25.32752 | 26384 ft | 428 kts | 292° |
| 2026-05-04 18:33 | 37.29505 | 25.29204 | 25782 ft | 424 kts | 291° |
| 2026-05-04 18:34 | 37.30434 | 25.25726 | 25197 ft | 420 kts | 292° |
| 2026-05-04 18:34 | 37.31348 | 25.22308 | 24632 ft | 417 kts | 292° |
| 2026-05-04 18:34 | 37.32265 | 25.18883 | 24093 ft | 412 kts | 292° |
| 2026-05-04 18:34 | 37.33168 | 25.15509 | 23551 ft | 408 kts | 292° |
| 2026-05-04 18:35 | 37.34069 | 25.12137 | 23025 ft | 404 kts | 292° |
| 2026-05-04 18:35 | 37.34951 | 25.08831 | 22506 ft | 401 kts | 292° |
| 2026-05-04 18:35 | 37.35831 | 25.05528 | 21983 ft | 397 kts | 292° |
| 2026-05-04 18:35 | 37.36701 | 25.02264 | 21465 ft | 394 kts | 292° |
| 2026-05-04 18:36 | 37.37557 | 24.99044 | 20952 ft | 390 kts | 292° |
| 2026-05-04 18:36 | 37.38419 | 24.95810 | 20426 ft | 387 kts | 292° |
| 2026-05-04 18:36 | 37.39265 | 24.92627 | 19906 ft | 384 kts | 292° |
| 2026-05-04 18:36 | 37.40110 | 24.89445 | 19382 ft | 381 kts | 292° |
| 2026-05-04 18:37 | 37.40938 | 24.86315 | 18866 ft | 378 kts | 292° |
| 2026-05-04 18:37 | 37.41762 | 24.83206 | 18354 ft | 375 kts | 292° |
| 2026-05-04 18:37 | 37.42585 | 24.80097 | 17844 ft | 372 kts | 292° |
| 2026-05-04 18:37 | 37.43390 | 24.77044 | 17324 ft | 370 kts | 292° |
| 2026-05-04 18:38 | 37.44190 | 24.74010 | 16817 ft | 367 kts | 292° |
| 2026-05-04 18:38 | 37.44988 | 24.70983 | 16312 ft | 364 kts | 292° |
| 2026-05-04 18:38 | 37.45779 | 24.67978 | 15797 ft | 362 kts | 292° |
| 2026-05-04 18:38 | 37.46565 | 24.64986 | 15279 ft | 360 kts | 292° |
| 2026-05-04 18:39 | 37.47345 | 24.62011 | 14770 ft | 358 kts | 292° |
| 2026-05-04 18:39 | 37.48125 | 24.59041 | 14254 ft | 356 kts | 292° |
| 2026-05-04 18:39 | 37.48893 | 24.56107 | 13753 ft | 353 kts | 292° |
| 2026-05-04 18:39 | 37.49658 | 24.53182 | 13269 ft | 351 kts | 292° |
| 2026-05-04 18:40 | 37.50407 | 24.50307 | 12803 ft | 347 kts | 292° |
| 2026-05-04 18:40 | 37.51158 | 24.47428 | 12341 ft | 344 kts | 292° |
| 2026-05-04 18:40 | 37.51892 | 24.44614 | 11963 ft | 338 kts | 292° |
| 2026-05-04 18:40 | 37.52619 | 24.41811 | 11444 ft | 338 kts | 292° |
| 2026-05-04 18:41 | 37.53339 | 24.39023 | 10948 ft | 335 kts | 292° |
| 2026-05-04 18:41 | 37.54066 | 24.36221 | 10517 ft | 331 kts | 292° |
| 2026-05-04 18:41 | 37.54765 | 24.33516 | 10312 ft | 320 kts | 292° |
| 2026-05-04 18:41 | 37.55428 | 24.30928 | 10114 ft | 309 kts | 292° |
| 2026-05-04 18:42 | 37.56076 | 24.28379 | 9917 ft | 299 kts | 292° |
| 2026-05-04 18:42 | 37.56686 | 24.25941 | 9726 ft | 289 kts | 292° |
| 2026-05-04 18:42 | 37.57274 | 24.23567 | 9543 ft | 279 kts | 292° |
| 2026-05-04 18:42 | 37.57841 | 24.21255 | 9262 ft | 274 kts | 292° |
| 2026-05-04 18:43 | 37.58399 | 24.18979 | 8886 ft | 273 kts | 292° |
| 2026-05-04 18:43 | 37.58956 | 24.16688 | 8497 ft | 271 kts | 292° |
| 2026-05-04 18:43 | 37.59505 | 24.14425 | 8131 ft | 270 kts | 292° |
| 2026-05-04 18:43 | 37.60050 | 24.12175 | 7751 ft | 268 kts | 292° |
| 2026-05-04 18:44 | 37.60583 | 24.09963 | 7377 ft | 267 kts | 292° |
| 2026-05-04 18:44 | 37.60944 | 24.08469 | 7124 ft | 266 kts | 292° |
| 2026-05-04 18:44 | 37.61662 | 24.05496 | 6619 ft | 264 kts | 292° |
| 2026-05-04 18:44 | 37.62181 | 24.03335 | 6426 ft | 256 kts | 292° |
| 2026-05-04 18:45 | 37.62685 | 24.01218 | 6248 ft | 247 kts | 292° |
| 2026-05-04 18:45 | 37.63161 | 23.99191 | 6076 ft | 238 kts | 292° |
| 2026-05-04 18:45 | 37.63623 | 23.97211 | 5881 ft | 231 kts | 292° |
| 2026-05-04 18:45 | 37.64078 | 23.95291 | 5580 ft | 229 kts | 292° |
| 2026-05-04 18:46 | 37.64541 | 23.93362 | 5250 ft | 229 kts | 292° |
| 2026-05-04 18:46 | 37.64999 | 23.91476 | 5008 ft | 226 kts | 292° |
| 2026-05-04 18:46 | 37.65469 | 23.89575 | 4990 ft | 228 kts | 292° |
| 2026-05-04 18:46 | 37.65946 | 23.87673 | 4987 ft | 228 kts | 292° |
| 2026-05-04 18:47 | 37.66424 | 23.85771 | 4988 ft | 228 kts | 292° |
| 2026-05-04 18:47 | 37.66903 | 23.83869 | 4987 ft | 228 kts | 292° |
| 2026-05-04 18:47 | 37.67387 | 23.81946 | 4987 ft | 228 kts | 292° |
| 2026-05-04 18:47 | 37.67860 | 23.80055 | 4988 ft | 228 kts | 292° |
| 2026-05-04 18:48 | 37.68390 | 23.78177 | 4976 ft | 225 kts | 303° |
| 2026-05-04 18:48 | 37.69439 | 23.76791 | 4772 ft | 215 kts | 334° |
| 2026-05-04 18:48 | 37.70849 | 23.76257 | 4402 ft | 213 kts | 352° |
| 2026-05-04 18:48 | 37.72299 | 23.76026 | 4234 ft | 204 kts | 354° |
| 2026-05-04 18:49 | 37.73679 | 23.75855 | 4069 ft | 196 kts | 355° |
| 2026-05-04 18:49 | 37.74970 | 23.76027 | 4019 ft | 180 kts | 18° |
| 2026-05-04 18:49 | 37.76078 | 23.76737 | 4002 ft | 177 kts | 30° |
| 2026-05-04 18:49 | 37.77102 | 23.77601 | 3979 ft | 178 kts | 32° |
| 2026-05-04 18:50 | 37.78110 | 23.78516 | 3793 ft | 179 kts | 33° |
| 2026-05-04 18:50 | 37.79104 | 23.79448 | 3546 ft | 175 kts | 34° |
| 2026-05-04 18:50 | 37.80050 | 23.80349 | 3304 ft | 167 kts | 34° |
| 2026-05-04 18:50 | 37.80948 | 23.81209 | 3062 ft | 153 kts | 34° |
| 2026-05-04 18:51 | 37.81771 | 23.81997 | 2905 ft | 147 kts | 34° |
| 2026-05-04 18:51 | 37.82575 | 23.82765 | 2709 ft | 142 kts | 34° |
| 2026-05-04 18:51 | 37.83356 | 23.83510 | 2526 ft | 141 kts | 34° |
| 2026-05-04 18:51 | 37.84143 | 23.84260 | 2340 ft | 141 kts | 34° |
| 2026-05-04 18:52 | 37.84922 | 23.85002 | 2156 ft | 140 kts | 35° |
| 2026-05-04 18:52 | 37.85705 | 23.85749 | 1968 ft | 140 kts | 35° |
| 2026-05-04 18:52 | 37.86475 | 23.86483 | 1780 ft | 139 kts | 35° |
| 2026-05-04 18:52 | 37.87248 | 23.87219 | 1594 ft | 139 kts | 36° |
| 2026-05-04 18:53 | 37.88020 | 23.87955 | 1403 ft | 139 kts | 36° |
| 2026-05-04 18:53 | 37.88791 | 23.88688 | 1215 ft | 138 kts | 36° |
| 2026-05-04 18:53 | 37.89561 | 23.89422 | 1027 ft | 138 kts | 36° |
| 2026-05-04 18:53 | 37.90328 | 23.90151 | 845 ft | 137 kts | 36° |
| 2026-05-04 18:54 | 37.91085 | 23.90871 | 663 ft | 137 kts | 37° |
| 2026-05-04 18:54 | 37.91847 | 23.91600 | 488 ft | 136 kts | 38° |
| 2026-05-04 18:54 | 37.92604 | 23.92323 | 332 ft | 134 kts | 37° |
| 2026-05-04 18:54 | 37.93303 | 23.92988 | 317 ft | 109 kts | 37° |
| 2026-05-04 18:55 | 37.93771 | 23.93431 | 317 ft | 60 kts | 37° |
| 2026-05-04 18:55 | 37.94252 | 23.93999 | 317 ft | 27 kts | 64° |
| 2026-05-04 18:55 | 37.94325 | 23.94207 | 317 ft | 21 kts | 65° |
| 2026-05-04 18:56 | 37.94400 | 23.94305 | 317 ft | 15 kts | 37° |
| 2026-05-04 18:56 | 37.94488 | 23.94389 | 317 ft | 15 kts | 37° |
| 2026-05-04 18:56 | 37.94574 | 23.94471 | 317 ft | 15 kts | 37° |
| 2026-05-04 18:56 | 37.94661 | 23.94555 | 317 ft | 15 kts | 39° |
| 2026-05-04 18:57 | 37.94656 | 23.94674 | 317 ft | 15 kts | 126° |
| 2026-05-04 18:57 | 37.94593 | 23.94780 | 317 ft | 14 kts | 127° |
| 2026-05-04 18:57 | 37.94532 | 23.94881 | 317 ft | 13 kts | 127° |
| 2026-05-04 18:57 | 37.94475 | 23.94975 | 317 ft | 13 kts | 127° |
| 2026-05-04 18:58 | 37.94421 | 23.95065 | 317 ft | 12 kts | 127° |
| 2026-05-04 18:58 | 37.94369 | 23.95153 | 317 ft | 12 kts | 127° |
| 2026-05-04 18:58 | 37.94321 | 23.95233 | 317 ft | 11 kts | 127° |
| 2026-05-04 18:58 | 37.94273 | 23.95314 | 317 ft | 11 kts | 127° |
| 2026-05-04 18:59 | 37.94227 | 23.95391 | 317 ft | 10 kts | 127° |
| 2026-05-04 18:59 | 37.94172 | 23.95427 | 317 ft | 8 kts | 198° |
| 2026-05-04 18:59 | 37.94129 | 23.95392 | 317 ft | 3 kts | 216° |
| 2026-05-04 18:59 | 37.94125 | 23.95389 | 317 ft | 0 kts | 216° |